Time;durP1;ratioP1;P1;durP2;ratioP2;P2;SDS_P1;SDS_P2;PMS_P1;PMS_P2;Temp;Humidity;BMP_temperature;BMP_pressure;BME280_temperature;BME280_humidity;BME280_pressure;Samples;Min_cycle;Max_cycle;Signal;HPM_P1;HPM_P2
2022/04/10 00:00:35;;;;;;;;;;;21.40;35.50;;;;;;498446;239;1106;-39
2022/04/10 00:02:36;;;;;;;;;;;21.40;35.50;;;;;;498775;239;1074;-39
2022/04/10 00:04:38;;;;;;;;;;;21.40;35.50;;;;;;498939;239;1025;-39
2022/04/10 00:06:39;;;;;;;;;;;21.40;35.40;;;;;;498419;239;1324;-39
2022/04/10 00:08:40;;;;;;;;;;;21.40;35.40;;;;;;498922;239;2189;-39
2022/04/10 00:10:42;;;;;;;;;;;21.40;35.40;;;;;;498592;239;1432;-39
2022/04/10 00:12:43;;;;;;;;;;;21.40;35.40;;;;;;498442;239;1184;-39
2022/04/10 00:14:45;;;;;;;;;;;21.40;35.40;;;;;;498267;239;1186;-39
2022/04/10 00:16:46;;;;;;;;;;;21.40;35.50;;;;;;498221;239;2533;-39
2022/04/10 00:18:47;;;;;;;;;;;21.40;35.40;;;;;;498584;239;1240;-39
2022/04/10 00:20:49;;;;;;;;;;;21.40;35.40;;;;;;498744;239;1364;-39
2022/04/10 00:22:51;;;;;;;;;;;21.40;35.40;;;;;;498733;239;1558;-39
2022/04/10 00:24:52;;;;;;;;;;;21.40;35.40;;;;;;498227;239;2253;-39
2022/04/10 00:26:53;;;;;;;;;;;21.40;35.30;;;;;;498346;239;1547;-39
2022/04/10 00:28:56;;;;;;;;;;;21.40;35.30;;;;;;498568;239;2105;-39
2022/04/10 00:30:56;;;;;;;;;;;21.40;35.20;;;;;;498275;239;2243;-39
2022/04/10 00:32:57;;;;;;;;;;;21.40;35.20;;;;;;498333;239;1187;-39
2022/04/10 00:34:58;;;;;;;;;;;21.40;35.30;;;;;;498445;239;1617;-39
2022/04/10 00:37:00;;;;;;;;;;;21.40;35.20;;;;;;498849;239;1223;-39
2022/04/10 00:39:01;;;;;;;;;;;21.40;35.30;;;;;;498378;239;2603;-39
2022/04/10 00:41:02;;;;;;;;;;;21.30;35.20;;;;;;498393;238;1185;-39
2022/04/10 00:43:03;;;;;;;;;;;21.40;35.30;;;;;;498433;239;1215;-39
2022/04/10 00:45:05;;;;;;;;;;;21.40;35.20;;;;;;498933;239;997;-39
2022/04/10 00:47:10;;;;;;;;;;;21.40;35.20;;;;;;498511;239;1084;-39
2022/04/10 00:49:08;;;;;;;;;;;21.40;35.30;;;;;;498230;239;2305;-39
2022/04/10 00:53:29;;;;;;;;;;;21.40;35.30;;;;;;498900;238;1055;-39
2022/04/10 00:55:30;;;;;;;;;;;21.40;35.30;;;;;;498886;238;1255;-39
2022/04/10 00:57:31;;;;;;;;;;;21.40;35.30;;;;;;498681;239;1181;-39
2022/04/10 00:59:32;;;;;;;;;;;21.30;35.30;;;;;;498945;239;1069;-39
2022/04/10 01:01:34;;;;;;;;;;;21.40;35.30;;;;;;498640;239;1347;-39
2022/04/10 01:03:35;;;;;;;;;;;21.40;35.30;;;;;;498891;239;1177;-39
2022/04/10 01:05:36;;;;;;;;;;;21.30;35.20;;;;;;498881;239;1114;-39
2022/04/10 01:07:38;;;;;;;;;;;21.40;35.30;;;;;;498890;239;2117;-39
2022/04/10 01:09:39;;;;;;;;;;;21.40;35.20;;;;;;498946;239;1038;-39
2022/04/10 01:11:41;;;;;;;;;;;21.40;35.10;;;;;;498878;239;1359;-39
2022/04/10 01:13:42;;;;;;;;;;;21.40;35.10;;;;;;498457;239;1359;-39
2022/04/10 01:15:43;;;;;;;;;;;21.40;35.10;;;;;;498915;239;1546;-39
2022/04/10 01:17:45;;;;;;;;;;;21.40;35.10;;;;;;498713;239;1161;-39
2022/04/10 01:19:46;;;;;;;;;;;21.40;35.10;;;;;;498449;239;1104;-39
2022/04/10 01:21:48;;;;;;;;;;;21.40;35.10;;;;;;498687;239;1194;-39
2022/04/10 01:23:49;;;;;;;;;;;21.40;35.10;;;;;;498746;239;1345;-39
2022/04/10 01:25:50;;;;;;;;;;;21.40;35.20;;;;;;498479;239;1244;-39
2022/04/10 01:27:51;;;;;;;;;;;21.40;35.10;;;;;;498377;239;2192;-39
2022/04/10 01:29:53;;;;;;;;;;;21.40;35.10;;;;;;498940;239;1035;-39
2022/04/10 01:31:54;;;;;;;;;;;21.40;35.10;;;;;;498850;239;1252;-39
2022/04/10 01:33:55;;;;;;;;;;;21.40;35.10;;;;;;498469;239;1046;-39
2022/04/10 01:35:57;;;;;;;;;;;21.40;35.10;;;;;;498858;239;1406;-39
2022/04/10 01:37:58;;;;;;;;;;;21.40;35.10;;;;;;498684;239;1292;-39
2022/04/10 01:40:00;;;;;;;;;;;21.40;35.10;;;;;;498592;239;1098;-39
2022/04/10 01:42:01;;;;;;;;;;;21.40;35.10;;;;;;498832;239;1191;-39
2022/04/10 01:44:02;;;;;;;;;;;21.40;35.10;;;;;;498470;239;1154;-39
2022/04/10 01:46:04;;;;;;;;;;;21.40;35.10;;;;;;498868;239;1352;-39
2022/04/10 01:48:05;;;;;;;;;;;21.40;35.00;;;;;;498428;239;2145;-39
2022/04/10 01:50:06;;;;;;;;;;;21.40;35.00;;;;;;498939;239;1213;-39
2022/04/10 01:52:08;;;;;;;;;;;21.40;35.10;;;;;;498856;239;1203;-39
2022/04/10 01:54:10;;;;;;;;;;;21.40;35.10;;;;;;498873;239;2014;-39
2022/04/10 01:56:11;;;;;;;;;;;21.40;35.10;;;;;;498800;239;1216;-39
2022/04/10 01:58:13;;;;;;;;;;;21.40;35.10;;;;;;498712;239;1217;-39
2022/04/10 02:00:14;;;;;;;;;;;21.40;35.10;;;;;;498477;239;1142;-39
2022/04/10 02:02:15;;;;;;;;;;;21.40;35.10;;;;;;498853;239;1233;-39
2022/04/10 02:04:18;;;;;;;;;;;21.40;35.00;;;;;;498714;239;1257;-39
2022/04/10 02:06:19;;;;;;;;;;;21.40;35.00;;;;;;498301;239;1922;-39
2022/04/10 02:08:20;;;;;;;;;;;21.40;35.00;;;;;;498438;239;2197;-39
2022/04/10 02:10:21;;;;;;;;;;;21.40;35.00;;;;;;498549;239;1061;-39
2022/04/10 02:12:23;;;;;;;;;;;21.40;34.90;;;;;;498693;239;1204;-39
2022/04/10 02:14:24;;;;;;;;;;;21.40;34.90;;;;;;498513;239;1320;-39
2022/04/10 02:16:25;;;;;;;;;;;21.40;34.90;;;;;;498753;239;1153;-39
2022/04/10 02:18:27;;;;;;;;;;;21.40;35.00;;;;;;498925;239;1071;-39
2022/04/10 02:20:28;;;;;;;;;;;21.40;35.00;;;;;;498677;239;1367;-39
2022/04/10 02:22:30;;;;;;;;;;;21.40;35.00;;;;;;498848;239;1189;-39
2022/04/10 02:24:31;;;;;;;;;;;21.40;35.00;;;;;;498894;239;1084;-39
2022/04/10 02:26:32;;;;;;;;;;;21.40;35.00;;;;;;498457;239;1424;-39
2022/04/10 02:28:33;;;;;;;;;;;21.40;34.90;;;;;;498709;239;2208;-39
2022/04/10 02:30:35;;;;;;;;;;;21.40;34.90;;;;;;498943;239;1353;-39
2022/04/10 02:32:36;;;;;;;;;;;21.40;35.00;;;;;;498899;239;1148;-39
2022/04/10 02:34:37;;;;;;;;;;;21.40;35.00;;;;;;498477;239;1081;-39
2022/04/10 02:36:39;;;;;;;;;;;21.40;35.00;;;;;;498490;239;1389;-39
2022/04/10 02:38:40;;;;;;;;;;;21.40;35.00;;;;;;498635;239;1067;-39
2022/04/10 02:40:41;;;;;;;;;;;21.40;34.90;;;;;;498875;239;1264;-39
2022/04/10 02:42:43;;;;;;;;;;;21.40;34.90;;;;;;498400;239;1074;-39
2022/04/10 02:44:44;;;;;;;;;;;21.40;34.90;;;;;;498416;239;1352;-39
2022/04/10 02:46:45;;;;;;;;;;;21.40;34.90;;;;;;498591;239;1165;-39
2022/04/10 02:48:47;;;;;;;;;;;21.40;34.90;;;;;;498932;239;2180;-39
2022/04/10 02:50:48;;;;;;;;;;;21.40;34.80;;;;;;498417;239;1314;-39
2022/04/10 02:52:51;;;;;;;;;;;21.30;34.90;;;;;;498838;239;1152;-39
2022/04/10 02:54:51;;;;;;;;;;;21.30;34.90;;;;;;498300;239;2199;-39
2022/04/10 02:56:52;;;;;;;;;;;21.40;35.00;;;;;;498585;239;1184;-39
2022/04/10 02:58:54;;;;;;;;;;;21.40;35.00;;;;;;498438;239;1152;-39
2022/04/10 03:00:55;;;;;;;;;;;21.40;35.00;;;;;;498875;239;1259;-39
2022/04/10 03:02:57;;;;;;;;;;;21.30;35.00;;;;;;498440;239;1225;-39
2022/04/10 03:04:58;;;;;;;;;;;21.40;35.00;;;;;;498947;239;1054;-39
2022/04/10 03:06:59;;;;;;;;;;;21.30;34.90;;;;;;498869;239;1237;-39
2022/04/10 03:09:01;;;;;;;;;;;21.40;34.90;;;;;;498448;239;2193;-39
2022/04/10 03:11:03;;;;;;;;;;;21.40;34.90;;;;;;498880;239;1512;-39
2022/04/10 03:13:03;;;;;;;;;;;21.40;34.90;;;;;;498857;239;2332;-39
2022/04/10 03:15:05;;;;;;;;;;;21.40;34.80;;;;;;498524;239;1366;-39
2022/04/10 03:17:06;;;;;;;;;;;21.40;34.70;;;;;;498478;239;1167;-39
2022/04/10 03:19:07;;;;;;;;;;;21.40;34.80;;;;;;498949;239;1038;-39
2022/04/10 03:21:09;;;;;;;;;;;21.40;34.70;;;;;;498408;236;1502;-39
2022/04/10 03:23:10;;;;;;;;;;;21.40;34.80;;;;;;498925;239;1192;-39
2022/04/10 03:25:11;;;;;;;;;;;21.40;34.80;;;;;;498461;239;1122;-39
2022/04/10 03:27:13;;;;;;;;;;;21.40;34.80;;;;;;498837;239;1282;-39
2022/04/10 03:29:14;;;;;;;;;;;21.40;34.80;;;;;;498722;239;2102;-39
2022/04/10 03:31:15;;;;;;;;;;;21.40;34.80;;;;;;498404;239;1216;-39
2022/04/10 03:33:17;;;;;;;;;;;21.40;34.80;;;;;;498941;239;1211;-39
2022/04/10 03:35:18;;;;;;;;;;;21.40;34.80;;;;;;498961;239;1038;-39
2022/04/10 03:37:19;;;;;;;;;;;21.40;34.80;;;;;;498538;239;1350;-39
2022/04/10 03:39:20;;;;;;;;;;;21.40;34.90;;;;;;498944;239;1081;-39
2022/04/10 03:41:22;;;;;;;;;;;21.40;34.90;;;;;;498907;239;1126;-39
2022/04/10 03:43:23;;;;;;;;;;;21.40;34.80;;;;;;498925;239;1015;-39
2022/04/10 03:45:25;;;;;;;;;;;21.40;34.90;;;;;;498521;239;1145;-39
2022/04/10 03:47:26;;;;;;;;;;;21.40;34.90;;;;;;498572;239;2340;-39
2022/04/10 03:49:27;;;;;;;;;;;21.40;34.90;;;;;;498942;239;2211;-39
2022/04/10 03:51:28;;;;;;;;;;;21.40;34.80;;;;;;498893;239;1372;-39
2022/04/10 03:53:30;;;;;;;;;;;21.40;34.80;;;;;;498968;239;1023;-39
2022/04/10 03:55:32;;;;;;;;;;;21.40;34.80;;;;;;498455;239;1372;-39
2022/04/10 03:57:32;;;;;;;;;;;21.40;34.70;;;;;;498582;239;2435;-39
2022/04/10 03:59:34;;;;;;;;;;;21.40;34.70;;;;;;498736;239;1394;-39
2022/04/10 04:01:35;;;;;;;;;;;21.40;34.70;;;;;;498645;239;1148;-39
2022/04/10 04:03:36;;;;;;;;;;;21.40;34.70;;;;;;498908;239;1239;-39
2022/04/10 04:05:37;;;;;;;;;;;21.40;34.80;;;;;;498915;239;1389;-39
2022/04/10 04:07:39;;;;;;;;;;;21.40;34.70;;;;;;498361;239;1175;-39
2022/04/10 04:09:40;;;;;;;;;;;21.40;34.70;;;;;;498963;239;2121;-39
2022/04/10 04:11:41;;;;;;;;;;;21.40;34.70;;;;;;498786;239;1242;-39
2022/04/10 04:13:43;;;;;;;;;;;21.40;34.80;;;;;;498942;239;1057;-39
2022/04/10 04:15:44;;;;;;;;;;;21.40;34.70;;;;;;498481;239;1222;-39
2022/04/10 04:17:45;;;;;;;;;;;21.40;34.70;;;;;;498472;239;1051;-39
2022/04/10 04:19:49;;;;;;;;;;;21.40;34.80;;;;;;498971;239;1076;-39
2022/04/10 04:21:48;;;;;;;;;;;21.40;34.70;;;;;;498449;239;2148;-39
2022/04/10 04:23:49;;;;;;;;;;;21.40;34.70;;;;;;498470;239;1064;-39
2022/04/10 04:25:51;;;;;;;;;;;21.40;34.70;;;;;;498902;239;1169;-39
2022/04/10 04:27:52;;;;;;;;;;;21.40;34.70;;;;;;498909;239;1097;-39
2022/04/10 04:29:53;;;;;;;;;;;21.40;34.70;;;;;;498453;239;2188;-39
2022/04/10 04:31:55;;;;;;;;;;;21.40;34.70;;;;;;498589;239;1168;-39
2022/04/10 04:33:56;;;;;;;;;;;21.40;34.70;;;;;;498951;239;1095;-39
2022/04/10 04:35:57;;;;;;;;;;;21.40;34.70;;;;;;498899;239;1152;-39
2022/04/10 04:38:00;;;;;;;;;;;21.40;34.70;;;;;;498401;239;1538;-39
2022/04/10 04:40:00;;;;;;;;;;;21.40;34.80;;;;;;498889;239;2185;-39
2022/04/10 04:42:01;;;;;;;;;;;21.40;34.70;;;;;;498843;239;1143;-39
2022/04/10 04:44:03;;;;;;;;;;;21.40;34.70;;;;;;498481;239;1125;-39
2022/04/10 04:46:04;;;;;;;;;;;21.40;34.70;;;;;;498505;239;1261;-39
2022/04/10 04:48:05;;;;;;;;;;;21.40;34.80;;;;;;498925;239;1223;-39
2022/04/10 04:50:07;;;;;;;;;;;21.40;34.80;;;;;;498950;239;2118;-39
2022/04/10 04:52:08;;;;;;;;;;;21.30;34.80;;;;;;498408;239;1413;-39
2022/04/10 04:54:09;;;;;;;;;;;21.40;34.80;;;;;;498944;239;1042;-39
2022/04/10 04:56:11;;;;;;;;;;;21.40;34.80;;;;;;498886;239;1137;-39
2022/04/10 04:58:12;;;;;;;;;;;21.40;34.70;;;;;;498942;239;1087;-39
2022/04/10 05:00:13;;;;;;;;;;;21.40;34.70;;;;;;498780;239;1282;-39
2022/04/10 05:02:15;;;;;;;;;;;21.40;34.70;;;;;;498889;239;1223;-39
2022/04/10 05:04:16;;;;;;;;;;;21.40;34.80;;;;;;498936;239;1062;-39
2022/04/10 05:06:17;;;;;;;;;;;21.40;34.80;;;;;;498853;239;1196;-39
2022/04/10 05:08:19;;;;;;;;;;;21.40;34.80;;;;;;498862;239;1226;-39
2022/04/10 05:10:20;;;;;;;;;;;21.40;34.70;;;;;;498868;239;2128;-39
2022/04/10 05:12:21;;;;;;;;;;;21.40;34.70;;;;;;498811;239;1157;-39
2022/04/10 05:14:23;;;;;;;;;;;21.40;34.70;;;;;;498916;239;1186;-39
2022/04/10 05:16:24;;;;;;;;;;;21.40;34.70;;;;;;498468;239;1255;-39
2022/04/10 05:18:25;;;;;;;;;;;21.40;34.70;;;;;;498922;239;1190;-39
2022/04/10 05:20:27;;;;;;;;;;;21.40;34.80;;;;;;498928;239;1190;-39
2022/04/10 05:22:28;;;;;;;;;;;21.40;34.70;;;;;;498871;239;1134;-39
2022/04/10 05:24:29;;;;;;;;;;;21.40;34.70;;;;;;498942;239;1200;-39
2022/04/10 05:26:31;;;;;;;;;;;21.40;34.70;;;;;;498832;239;1213;-39
2022/04/10 05:28:34;;;;;;;;;;;21.40;34.70;;;;;;498427;239;1139;-39
2022/04/10 05:30:33;;;;;;;;;;;21.30;34.70;;;;;;498272;239;2125;-39
2022/04/10 05:32:35;;;;;;;;;;;21.40;34.70;;;;;;498881;239;1142;-39
2022/04/10 05:34:36;;;;;;;;;;;21.40;34.70;;;;;;498911;239;1210;-39
2022/04/10 05:36:37;;;;;;;;;;;21.40;34.70;;;;;;498855;239;1050;-39
2022/04/10 05:38:39;;;;;;;;;;;21.40;34.70;;;;;;498445;239;1058;-39
2022/04/10 05:40:40;;;;;;;;;;;21.40;34.70;;;;;;498892;239;1017;-39
2022/04/10 05:42:41;;;;;;;;;;;21.40;34.70;;;;;;498895;239;1212;-39
2022/04/10 05:44:43;;;;;;;;;;;21.30;34.70;;;;;;498941;239;1217;-39
2022/04/10 05:46:44;;;;;;;;;;;21.40;34.70;;;;;;498465;239;1206;-39
2022/04/10 05:48:46;;;;;;;;;;;21.30;34.70;;;;;;498953;239;1058;-39
2022/04/10 05:50:47;;;;;;;;;;;21.30;34.80;;;;;;498937;239;2176;-39
2022/04/10 05:52:48;;;;;;;;;;;21.40;34.70;;;;;;498451;239;1192;-39
2022/04/10 05:54:49;;;;;;;;;;;21.40;34.70;;;;;;498956;239;1008;-39
2022/04/10 05:56:51;;;;;;;;;;;21.40;34.60;;;;;;498419;239;1724;-39
2022/04/10 05:58:52;;;;;;;;;;;21.40;34.60;;;;;;498514;239;1054;-39
2022/04/10 06:00:55;;;;;;;;;;;21.40;34.70;;;;;;498775;239;1310;-39
2022/04/10 06:02:55;;;;;;;;;;;21.40;34.70;;;;;;498812;239;1398;-39
2022/04/10 06:04:56;;;;;;;;;;;21.40;34.70;;;;;;498965;239;1126;-39
2022/04/10 06:06:58;;;;;;;;;;;21.40;34.60;;;;;;498827;239;1251;-39
2022/04/10 06:08:59;;;;;;;;;;;21.40;34.70;;;;;;498974;239;1056;-39
2022/04/10 06:11:01;;;;;;;;;;;21.40;34.70;;;;;;498907;239;2191;-39
2022/04/10 06:13:02;;;;;;;;;;;21.40;34.70;;;;;;498951;239;1065;-39
2022/04/10 06:15:03;;;;;;;;;;;21.40;34.60;;;;;;498958;239;1082;-39
2022/04/10 06:17:06;;;;;;;;;;;21.40;34.60;;;;;;498410;239;1280;-39
2022/04/10 06:19:06;;;;;;;;;;;21.40;34.60;;;;;;498847;239;1756;-39
2022/04/10 06:21:07;;;;;;;;;;;21.40;34.60;;;;;;498905;239;1145;-39
2022/04/10 06:23:09;;;;;;;;;;;21.40;34.50;;;;;;498925;239;1214;-39
2022/04/10 06:25:10;;;;;;;;;;;21.40;34.50;;;;;;498963;239;1051;-39
2022/04/10 06:27:11;;;;;;;;;;;21.40;34.50;;;;;;498440;239;1358;-39
2022/04/10 06:29:13;;;;;;;;;;;21.40;34.50;;;;;;498902;239;1028;-39
2022/04/10 06:31:14;;;;;;;;;;;21.40;34.60;;;;;;498393;235;2185;-39
2022/04/10 06:33:15;;;;;;;;;;;21.30;34.50;;;;;;498957;239;1057;-39
2022/04/10 06:35:18;;;;;;;;;;;21.40;34.50;;;;;;498939;239;1062;-39
2022/04/10 06:37:18;;;;;;;;;;;21.40;34.50;;;;;;498536;239;2367;-39
2022/04/10 06:39:19;;;;;;;;;;;21.40;34.50;;;;;;498929;239;1054;-39
2022/04/10 06:41:20;;;;;;;;;;;21.40;34.50;;;;;;498885;239;1190;-39
2022/04/10 06:43:22;;;;;;;;;;;21.40;34.50;;;;;;498902;239;1208;-39
2022/04/10 06:45:23;;;;;;;;;;;21.40;34.50;;;;;;498950;239;1009;-39
2022/04/10 06:47:27;;;;;;;;;;;21.40;34.50;;;;;;498508;239;1209;-39
2022/04/10 06:49:26;;;;;;;;;;;21.40;34.60;;;;;;498368;239;2373;-39
2022/04/10 06:51:28;;;;;;;;;;;21.40;34.60;;;;;;498883;236;2117;-39
2022/04/10 06:53:29;;;;;;;;;;;21.40;34.50;;;;;;498909;239;1177;-39
2022/04/10 06:55:31;;;;;;;;;;;21.30;34.60;;;;;;498913;239;1069;-39
2022/04/10 06:57:32;;;;;;;;;;;21.40;34.60;;;;;;498410;239;1260;-39
2022/04/10 06:59:33;;;;;;;;;;;21.30;34.50;;;;;;498937;239;1013;-39
2022/04/10 07:01:34;;;;;;;;;;;21.40;34.50;;;;;;498755;239;1313;-39
2022/04/10 07:03:36;;;;;;;;;;;21.40;34.50;;;;;;498507;239;1052;-39
2022/04/10 07:05:37;;;;;;;;;;;21.40;34.50;;;;;;498941;239;1045;-39
2022/04/10 07:07:38;;;;;;;;;;;21.40;34.50;;;;;;498439;239;1223;-39
2022/04/10 07:09:40;;;;;;;;;;;21.40;34.50;;;;;;498507;239;2177;-39
2022/04/10 07:11:41;;;;;;;;;;;21.40;34.40;;;;;;498910;239;1145;-39
2022/04/10 07:13:42;;;;;;;;;;;21.40;34.50;;;;;;498970;239;1040;-39
2022/04/10 07:15:44;;;;;;;;;;;21.40;34.40;;;;;;498949;239;1060;-39
2022/04/10 07:17:45;;;;;;;;;;;21.40;34.50;;;;;;498529;239;1216;-39
2022/04/10 07:19:46;;;;;;;;;;;21.40;34.50;;;;;;498918;239;1035;-39
2022/04/10 07:24:07;;;;;;;;;;;21.30;34.50;;;;;;498938;239;1215;-39
2022/04/10 07:26:08;;;;;;;;;;;21.40;34.50;;;;;;498729;239;1139;-39
2022/04/10 07:28:10;;;;;;;;;;;21.40;34.50;;;;;;498421;239;1207;-39
2022/04/10 07:30:11;;;;;;;;;;;21.40;34.50;;;;;;498875;239;2158;-39
2022/04/10 07:32:12;;;;;;;;;;;21.40;34.40;;;;;;498709;239;1169;-39
2022/04/10 07:34:14;;;;;;;;;;;21.30;34.40;;;;;;498468;239;1198;-39
2022/04/10 07:36:15;;;;;;;;;;;21.40;34.50;;;;;;498890;239;1341;-39
2022/04/10 07:38:17;;;;;;;;;;;21.40;34.50;;;;;;498427;239;1179;-39
2022/04/10 07:40:19;;;;;;;;;;;21.40;34.50;;;;;;498916;239;1299;-39
2022/04/10 07:42:20;;;;;;;;;;;21.40;34.50;;;;;;498857;239;1213;-39
2022/04/10 07:44:21;;;;;;;;;;;21.40;34.50;;;;;;498902;239;1154;-39
2022/04/10 07:48:42;;;;;;;;;;;21.40;34.40;;;;;;498371;239;1162;-39
2022/04/10 07:50:43;;;;;;;;;;;21.40;34.40;;;;;;498914;239;2193;-39
2022/04/10 07:52:45;;;;;;;;;;;21.30;34.40;;;;;;498917;239;1148;-39
2022/04/10 07:54:46;;;;;;;;;;;21.30;34.50;;;;;;498933;239;1034;-39
2022/04/10 07:56:47;;;;;;;;;;;21.40;34.50;;;;;;498875;239;1318;-39
2022/04/10 07:58:49;;;;;;;;;;;21.30;34.50;;;;;;498924;239;1029;-39
2022/04/10 08:00:50;;;;;;;;;;;21.30;34.40;;;;;;498903;239;1057;-39
2022/04/10 08:02:52;;;;;;;;;;;21.40;34.40;;;;;;498672;239;1223;-39
2022/04/10 08:04:52;;;;;;;;;;;21.30;34.40;;;;;;498415;239;2121;-39
2022/04/10 08:06:54;;;;;;;;;;;21.40;34.40;;;;;;498867;239;1288;-39
2022/04/10 08:08:55;;;;;;;;;;;21.40;34.40;;;;;;498751;239;1071;-39
2022/04/10 08:10:56;;;;;;;;;;;21.40;34.40;;;;;;498379;239;2185;-39
2022/04/10 08:12:59;;;;;;;;;;;21.40;34.40;;;;;;498392;239;1074;-39
2022/04/10 08:15:00;;;;;;;;;;;21.40;34.40;;;;;;498464;239;1071;-39
2022/04/10 08:17:01;;;;;;;;;;;21.40;34.40;;;;;;498620;239;1089;-39
2022/04/10 08:19:03;;;;;;;;;;;21.40;34.40;;;;;;498483;239;1502;-39
2022/04/10 08:21:04;;;;;;;;;;;21.40;34.50;;;;;;498910;239;1274;-39
2022/04/10 08:23:05;;;;;;;;;;;21.40;34.40;;;;;;498952;239;1134;-39
2022/04/10 08:25:06;;;;;;;;;;;21.40;34.40;;;;;;498953;239;1077;-39
2022/04/10 08:27:08;;;;;;;;;;;21.40;34.40;;;;;;498796;239;1156;-39
2022/04/10 08:29:09;;;;;;;;;;;21.40;34.40;;;;;;498878;239;2243;-39
2022/04/10 08:31:11;;;;;;;;;;;21.30;34.40;;;;;;498494;239;2154;-39
2022/04/10 08:33:12;;;;;;;;;;;21.40;34.40;;;;;;498446;239;1151;-39
2022/04/10 08:35:13;;;;;;;;;;;21.40;34.50;;;;;;498736;239;1097;-39
2022/04/10 08:37:14;;;;;;;;;;;21.30;34.40;;;;;;498530;239;1253;-39
2022/04/10 08:39:16;;;;;;;;;;;21.40;34.40;;;;;;498926;239;1034;-39
2022/04/10 08:41:18;;;;;;;;;;;21.40;34.40;;;;;;498882;239;1201;-39
2022/04/10 08:43:18;;;;;;;;;;;21.40;34.40;;;;;;498893;239;1711;-39
2022/04/10 08:45:20;;;;;;;;;;;21.40;34.40;;;;;;498953;239;1033;-39
2022/04/10 08:47:21;;;;;;;;;;;21.40;34.40;;;;;;498848;239;1145;-39
2022/04/10 08:49:22;;;;;;;;;;;21.40;34.40;;;;;;498515;239;1243;-39
2022/04/10 08:51:24;;;;;;;;;;;21.30;34.40;;;;;;498836;239;2098;-39
2022/04/10 08:53:25;;;;;;;;;;;21.40;34.40;;;;;;498918;239;1103;-39
2022/04/10 08:55:26;;;;;;;;;;;21.40;34.40;;;;;;498431;239;1237;-39
2022/04/10 08:57:28;;;;;;;;;;;21.40;34.40;;;;;;498924;239;1205;-39
2022/04/10 08:59:29;;;;;;;;;;;21.40;34.50;;;;;;498955;239;1084;-39
2022/04/10 09:01:30;;;;;;;;;;;21.30;34.50;;;;;;498396;239;1118;-39
2022/04/10 09:03:32;;;;;;;;;;;21.40;34.50;;;;;;498713;239;1148;-39
2022/04/10 09:05:33;;;;;;;;;;;21.40;34.50;;;;;;498906;239;1273;-39
2022/04/10 09:07:34;;;;;;;;;;;21.30;34.40;;;;;;498895;239;1217;-39
2022/04/10 09:09:36;;;;;;;;;;;21.40;34.50;;;;;;498927;239;1106;-39
2022/04/10 09:11:37;;;;;;;;;;;21.40;34.40;;;;;;498864;239;2105;-39
2022/04/10 09:13:38;;;;;;;;;;;21.40;34.30;;;;;;498410;239;1248;-39
2022/04/10 09:15:39;;;;;;;;;;;21.30;34.30;;;;;;498913;239;1054;-39
2022/04/10 09:17:41;;;;;;;;;;;21.40;34.30;;;;;;498434;239;1278;-39
2022/04/10 09:19:42;;;;;;;;;;;21.40;34.40;;;;;;498486;239;1144;-39
2022/04/10 09:21:44;;;;;;;;;;;21.40;34.40;;;;;;498419;239;1449;-39
2022/04/10 09:23:46;;;;;;;;;;;21.40;34.40;;;;;;498919;239;1331;-39
2022/04/10 09:25:46;;;;;;;;;;;21.40;34.40;;;;;;498472;239;2310;-39
2022/04/10 09:27:48;;;;;;;;;;;21.40;34.40;;;;;;498924;239;1325;-39
2022/04/10 09:29:49;;;;;;;;;;;21.40;34.40;;;;;;498913;239;1046;-39
2022/04/10 09:31:50;;;;;;;;;;;21.40;34.40;;;;;;498851;239;2200;-39
2022/04/10 09:33:52;;;;;;;;;;;21.40;34.40;;;;;;498722;239;1110;-39
2022/04/10 09:35:53;;;;;;;;;;;21.40;34.40;;;;;;498875;239;1386;-39
2022/04/10 09:37:54;;;;;;;;;;;21.40;34.40;;;;;;498829;239;1276;-39
2022/04/10 09:39:55;;;;;;;;;;;21.40;34.40;;;;;;498964;239;1070;-39
2022/04/10 09:41:57;;;;;;;;;;;21.40;34.40;;;;;;498843;237;1326;-39
2022/04/10 09:43:58;;;;;;;;;;;21.30;34.40;;;;;;498448;239;1092;-39
2022/04/10 09:45:59;;;;;;;;;;;21.40;34.40;;;;;;498710;239;1350;-39
2022/04/10 09:48:01;;;;;;;;;;;21.40;34.40;;;;;;498489;239;1504;-39
2022/04/10 09:50:02;;;;;;;;;;;21.40;34.30;;;;;;498474;239;1391;-39
2022/04/10 09:52:03;;;;;;;;;;;21.40;34.30;;;;;;498850;239;2125;-39
2022/04/10 09:54:05;;;;;;;;;;;21.30;34.30;;;;;;498945;239;1088;-39
2022/04/10 09:56:07;;;;;;;;;;;21.40;34.40;;;;;;498879;239;1493;-39
2022/04/10 09:58:08;;;;;;;;;;;21.40;34.40;;;;;;498855;239;1823;-39
2022/04/10 10:00:09;;;;;;;;;;;21.30;34.40;;;;;;498937;239;1043;-39
2022/04/10 10:02:10;;;;;;;;;;;21.30;34.40;;;;;;498371;239;1208;-39
2022/04/10 10:04:11;;;;;;;;;;;21.40;34.40;;;;;;498718;239;1347;-39
2022/04/10 10:06:13;;;;;;;;;;;21.40;34.30;;;;;;498352;239;1146;-39
2022/04/10 10:08:14;;;;;;;;;;;21.30;34.30;;;;;;498449;239;1059;-39
2022/04/10 10:10:17;;;;;;;;;;;21.30;34.30;;;;;;498933;239;994;-39
2022/04/10 10:12:17;;;;;;;;;;;21.40;34.30;;;;;;498358;239;2198;-39
2022/04/10 10:14:18;;;;;;;;;;;21.40;34.30;;;;;;498807;239;1014;-39
2022/04/10 10:16:20;;;;;;;;;;;21.30;34.30;;;;;;498472;239;1160;-39
2022/04/10 10:18:21;;;;;;;;;;;21.30;34.30;;;;;;498923;239;1049;-39
2022/04/10 10:20:23;;;;;;;;;;;21.30;34.30;;;;;;498518;239;1149;-39
2022/04/10 10:22:24;;;;;;;;;;;21.40;34.30;;;;;;498453;239;1351;-39
2022/04/10 10:24:26;;;;;;;;;;;21.40;34.30;;;;;;498899;239;1182;-39
2022/04/10 10:26:27;;;;;;;;;;;21.40;34.20;;;;;;498420;239;1332;-39
2022/04/10 10:28:28;;;;;;;;;;;21.40;34.30;;;;;;498416;239;1131;-39
2022/04/10 10:30:29;;;;;;;;;;;21.30;34.30;;;;;;498909;239;1343;-39
2022/04/10 10:32:31;;;;;;;;;;;21.40;34.30;;;;;;498924;239;2192;-39
2022/04/10 10:34:34;;;;;;;;;;;21.40;34.20;;;;;;498782;239;1217;-39
2022/04/10 10:36:33;;;;;;;;;;;21.40;34.20;;;;;;498315;239;1429;-39
2022/04/10 10:38:35;;;;;;;;;;;21.40;34.30;;;;;;498567;239;1191;-39
2022/04/10 10:40:36;;;;;;;;;;;21.40;34.30;;;;;;498444;239;1037;-39
2022/04/10 10:42:37;;;;;;;;;;;21.40;34.20;;;;;;498901;239;1197;-39
2022/04/10 10:44:39;;;;;;;;;;;21.40;34.20;;;;;;498524;239;956;-39
2022/04/10 10:46:42;;;;;;;;;;;21.40;34.20;;;;;;498875;239;1217;-39
2022/04/10 10:48:42;;;;;;;;;;;21.40;34.20;;;;;;498361;239;2336;-39
2022/04/10 10:50:43;;;;;;;;;;;21.40;34.20;;;;;;498505;239;2415;-39
2022/04/10 10:52:44;;;;;;;;;;;21.40;34.20;;;;;;498889;239;2118;-39
2022/04/10 10:54:46;;;;;;;;;;;21.40;34.20;;;;;;498792;239;1059;-39
2022/04/10 10:56:47;;;;;;;;;;;21.40;34.20;;;;;;498812;239;2331;-39
2022/04/10 10:58:48;;;;;;;;;;;21.40;34.20;;;;;;498943;239;1079;-39
2022/04/10 11:00:49;;;;;;;;;;;21.40;34.20;;;;;;498819;239;1362;-39
2022/04/10 11:02:51;;;;;;;;;;;21.40;34.20;;;;;;498850;239;1212;-39
2022/04/10 11:04:52;;;;;;;;;;;21.40;34.20;;;;;;498751;239;1151;-39
2022/04/10 11:06:53;;;;;;;;;;;21.40;34.20;;;;;;498483;239;1416;-39
2022/04/10 11:08:54;;;;;;;;;;;21.40;34.20;;;;;;498918;239;1106;-39
2022/04/10 11:10:56;;;;;;;;;;;21.30;34.20;;;;;;498461;239;1252;-39
2022/04/10 11:12:57;;;;;;;;;;;21.40;34.20;;;;;;498908;239;2109;-39
2022/04/10 11:15:01;;;;;;;;;;;21.40;34.20;;;;;;498955;239;1060;-39
2022/04/10 11:17:00;;;;;;;;;;;21.30;34.10;;;;;;498474;239;2408;-39
2022/04/10 11:19:02;;;;;;;;;;;21.40;34.10;;;;;;498916;239;1040;-39
2022/04/10 11:21:02;;;;;;;;;;;21.30;34.10;;;;;;498334;239;2171;-39
2022/04/10 11:23:04;;;;;;;;;;;21.40;34.20;;;;;;498437;239;1167;-39
2022/04/10 11:25:05;;;;;;;;;;;21.30;34.20;;;;;;498926;239;1684;-39
2022/04/10 11:27:06;;;;;;;;;;;21.30;34.30;;;;;;498676;239;1147;-39
2022/04/10 11:29:08;;;;;;;;;;;21.40;34.20;;;;;;498451;239;1061;-39
2022/04/10 11:31:09;;;;;;;;;;;21.40;34.20;;;;;;498879;236;1332;-39
2022/04/10 11:33:10;;;;;;;;;;;21.40;34.20;;;;;;498903;239;2114;-39
2022/04/10 11:35:12;;;;;;;;;;;21.40;34.20;;;;;;498759;239;1146;-39
2022/04/10 11:37:14;;;;;;;;;;;21.40;34.20;;;;;;498868;239;1166;-39
2022/04/10 11:39:16;;;;;;;;;;;21.30;34.20;;;;;;498420;239;2144;-39
2022/04/10 11:41:16;;;;;;;;;;;21.30;34.30;;;;;;498718;239;2264;-39
2022/04/10 11:43:17;;;;;;;;;;;21.30;34.30;;;;;;498427;239;1281;-39
2022/04/10 11:45:18;;;;;;;;;;;21.30;34.30;;;;;;498891;239;1032;-39
2022/04/10 11:47:21;;;;;;;;;;;21.30;34.30;;;;;;498881;239;1202;-39
2022/04/10 11:49:21;;;;;;;;;;;21.40;34.30;;;;;;498440;239;1760;-39
2022/04/10 11:51:22;;;;;;;;;;;21.40;34.30;;;;;;498394;239;2196;-39
2022/04/10 11:53:24;;;;;;;;;;;21.40;34.20;;;;;;498448;239;1071;-39
2022/04/10 11:55:25;;;;;;;;;;;21.30;34.20;;;;;;498461;239;1267;-39
2022/04/10 11:57:26;;;;;;;;;;;21.30;34.30;;;;;;498879;239;1359;-39
2022/04/10 11:59:30;;;;;;;;;;;21.40;34.30;;;;;;498935;239;1076;-39
2022/04/10 12:01:29;;;;;;;;;;;21.30;34.30;;;;;;498234;239;1822;-39
2022/04/10 12:03:30;;;;;;;;;;;21.30;34.30;;;;;;498472;239;997;-39